createdAt,value
2023-01-29T00:02:07.088Z,81.70
2023-01-29T00:04:34.131Z,81.60
2023-01-29T00:07:00.834Z,81.20
2023-01-29T00:09:28.650Z,81.00
2023-01-29T00:11:55.298Z,80.50
2023-01-29T00:14:22.091Z,80.40
2023-01-29T00:16:48.882Z,80.00
2023-01-29T00:19:15.632Z,79.70
2023-01-29T00:21:42.303Z,79.50
2023-01-29T00:24:09.165Z,79.20
2023-01-29T00:26:54.373Z,78.90
2023-01-29T00:29:35.142Z,79.10
2023-01-29T00:32:34.368Z,78.60
2023-01-29T00:39:27.752Z,78.40
2023-01-29T00:42:43.918Z,78.50
2023-01-29T00:45:17.457Z,78.70
2023-01-29T00:48:01.388Z,79.10
2023-01-29T00:50:37.018Z,79.50
2023-01-29T00:53:09.564Z,79.80
2023-01-29T00:55:44.214Z,79.70
2023-01-29T00:58:22.302Z,79.90
2023-01-29T01:00:49.576Z,79.40
2023-01-29T01:03:17.547Z,79.20
2023-01-29T01:05:51.565Z,79.50
2023-01-29T01:09:09.329Z,79.60
2023-01-29T01:11:44.371Z,80.10
2023-01-29T01:14:21.529Z,80.50
2023-01-29T01:16:51.031Z,81.10
2023-01-29T01:19:22.943Z,81.10
2023-01-29T01:21:54.748Z,81.00
2023-01-29T01:24:26.966Z,81.20
2023-01-29T01:27:12.767Z,81.30
2023-01-29T01:29:39.547Z,81.30
2023-01-29T01:32:06.376Z,81.60
2023-01-29T01:34:45.386Z,81.50
2023-01-29T01:37:16.077Z,81.50
2023-01-29T01:39:58.932Z,81.20
2023-01-29T01:42:32.787Z,81.40
2023-01-29T01:45:08.021Z,81.30
2023-01-29T01:47:47.751Z,81.20
2023-01-29T01:50:27.191Z,81.50
2023-01-29T01:52:58.967Z,81.40
2023-01-29T01:55:28.800Z,81.30
2023-01-29T01:58:03.352Z,81.70
2023-01-29T02:00:30.344Z,82.00
2023-01-29T02:03:15.654Z,82.00
2023-01-29T02:06:04.191Z,81.90
2023-01-29T02:09:13.109Z,81.80
2023-01-29T02:11:43.445Z,81.80
2023-01-29T02:14:13.361Z,81.90
2023-01-29T02:16:42.975Z,81.70
2023-01-29T02:35:05.416Z,82.10
2023-01-29T04:00:17.992Z,80.00
2023-01-29T04:11:17.181Z,80.30
2023-01-29T04:18:26.860Z,80.60
2023-01-29T04:21:38.746Z,80.10
2023-01-29T04:28:54.045Z,80.00
2023-01-29T04:36:20.907Z,79.80
2023-01-29T04:43:39.503Z,79.60
2023-01-29T04:46:06.132Z,79.80
2023-01-29T04:48:51.711Z,79.60
2023-01-29T04:51:42.948Z,80.00
2023-01-29T04:54:33.246Z,79.60
2023-01-29T04:57:19.134Z,79.80
2023-01-29T04:59:51.108Z,79.70
2023-01-29T05:02:20.588Z,79.40
2023-01-29T05:04:48.413Z,79.40
2023-01-29T05:07:17.271Z,79.00
2023-01-29T05:09:46.256Z,79.10
2023-01-29T05:12:15.789Z,78.90
2023-01-29T05:14:45.110Z,78.70
2023-01-29T05:17:18.122Z,78.30
2023-01-29T05:19:45.537Z,78.40
2023-01-29T05:22:14.974Z,78.20
2023-01-29T05:24:41.871Z,78.00
2023-01-29T05:27:36.798Z,78.40
2023-01-29T05:30:03.952Z,78.40
2023-01-29T05:32:30.600Z,78.50
2023-01-29T05:34:57.270Z,78.10
2023-01-29T05:37:24.078Z,78.20
2023-01-29T05:39:50.856Z,78.00
2023-01-29T05:42:17.547Z,77.70
2023-01-29T05:44:44.374Z,76.90
2023-01-29T05:47:11.111Z,76.90
2023-01-29T05:49:38.854Z,76.20
2023-01-29T05:52:05.721Z,76.50
2023-01-29T05:54:32.400Z,76.80
2023-01-29T05:56:59.210Z,76.40
2023-01-29T05:59:26.076Z,76.10
2023-01-29T06:01:52.823Z,76.10
2023-01-29T06:04:19.569Z,75.60
2023-01-29T06:06:46.269Z,75.80
2023-01-29T06:09:13.107Z,75.60
2023-01-29T06:11:40.277Z,75.60
2023-01-29T06:14:07.288Z,75.40
2023-01-29T06:16:34.041Z,75.40
2023-01-29T06:19:00.755Z,75.00
2023-01-29T06:21:27.433Z,75.20
2023-01-29T06:23:54.306Z,75.40
2023-01-29T06:26:21.010Z,75.60
2023-01-29T06:28:51.535Z,75.30
2023-01-29T06:31:37.787Z,75.50
2023-01-29T06:34:05.719Z,75.50
2023-01-29T06:36:32.389Z,75.40
2023-01-29T06:38:59.122Z,75.70
2023-01-29T06:41:25.923Z,75.40
2023-01-29T06:43:52.781Z,75.60
2023-01-29T06:46:19.475Z,75.40
2023-01-29T06:48:46.246Z,75.40
2023-01-29T06:51:12.899Z,75.30
2023-01-29T06:53:40.183Z,75.20
2023-01-29T06:56:07.770Z,75.50
2023-01-29T06:58:38.076Z,75.20
2023-01-29T07:01:07.472Z,74.70
2023-01-29T07:03:35.149Z,74.50
2023-01-29T07:06:02.022Z,73.30
2023-01-29T07:08:28.955Z,73.30
2023-01-29T07:11:00.407Z,73.70
2023-01-29T07:13:27.301Z,74.00
2023-01-29T07:15:56.274Z,74.20
2023-01-29T07:18:23.082Z,73.90
2023-01-29T07:20:50.203Z,74.00
2023-01-29T07:23:18.419Z,74.10
2023-01-29T07:25:45.363Z,74.00
2023-01-29T07:28:13.595Z,74.10
2023-01-29T07:30:40.694Z,73.30
2023-01-29T07:33:09.597Z,72.30
2023-01-29T07:35:38.401Z,72.30
2023-01-29T07:38:05.533Z,71.80
2023-01-29T07:40:32.208Z,72.10
2023-01-29T07:43:04.749Z,72.00
2023-01-29T07:45:35.337Z,72.00
2023-01-29T07:48:04.313Z,72.50
2023-01-29T07:50:33.215Z,72.00
2023-01-29T07:53:00.429Z,71.40
2023-01-29T07:55:27.641Z,71.70
2023-01-29T07:58:12.851Z,72.20
2023-01-29T08:00:39.875Z,71.60
2023-01-29T08:03:11.053Z,71.50
2023-01-29T08:05:37.959Z,71.60
2023-01-29T08:08:07.406Z,70.90
2023-01-29T08:10:36.119Z,70.50
2023-01-29T08:13:04.845Z,70.60
2023-01-29T08:15:32.652Z,69.80
2023-01-29T08:18:01.905Z,70.60
2023-01-29T08:20:28.814Z,70.20
2023-01-29T08:23:02.807Z,70.40
2023-01-29T08:25:29.931Z,70.20
2023-01-29T08:27:57.960Z,70.20
2023-01-29T08:30:30.220Z,69.70
2023-01-29T08:32:57.159Z,69.60
2023-01-29T08:35:24.706Z,68.80
2023-01-29T08:37:59.853Z,69.00
2023-01-29T08:40:28.595Z,68.70
2023-01-29T08:43:10.133Z,68.00
2023-01-29T08:45:42.032Z,67.70
2023-01-29T08:48:09.804Z,66.80
2023-01-29T08:50:36.892Z,65.60
2023-01-29T08:53:07.647Z,65.60
2023-01-29T08:55:45.856Z,65.40
2023-01-29T08:58:12.511Z,65.40
2023-01-29T09:00:39.498Z,65.10
2023-01-29T09:03:07.796Z,64.20
2023-01-29T09:05:38.593Z,62.80
2023-01-29T09:08:06.517Z,62.70
2023-01-29T09:10:33.587Z,61.10
2023-01-29T09:13:00.532Z,60.20
2023-01-29T09:15:27.339Z,59.30
2023-01-29T09:17:54.083Z,58.90
2023-01-29T09:20:20.972Z,58.50
2023-01-29T09:22:47.665Z,58.60
2023-01-29T09:25:15.169Z,57.90
2023-01-29T09:27:42.084Z,58.00
2023-01-29T09:30:09.409Z,58.10
2023-01-29T09:35:23.093Z,59.60
2023-01-29T09:37:50.870Z,60.40
2023-01-29T09:40:26.641Z,59.30
2023-01-29T09:43:04.441Z,60.60
2023-01-29T09:45:31.558Z,61.80
2023-01-29T09:48:02.080Z,61.60
2023-01-29T09:50:34.599Z,62.40
2023-01-29T09:53:25.671Z,63.50
2023-01-29T09:56:12.479Z,62.60
2023-01-29T09:58:42.127Z,62.70
2023-01-29T10:01:15.902Z,63.50
2023-01-29T10:04:14.212Z,63.00
2023-01-29T10:06:54.270Z,63.00
2023-01-29T10:09:37.489Z,62.20
2023-01-29T10:12:13.127Z,61.90
2023-01-29T10:14:57.192Z,61.70
2023-01-29T10:17:54.395Z,62.70
2023-01-29T10:20:33.646Z,62.40
2023-01-29T10:23:21.515Z,61.70
2023-01-29T10:25:48.968Z,61.90
2023-01-29T10:28:39.269Z,61.80
2023-01-29T10:31:15.290Z,62.20
2023-01-29T10:34:01.403Z,62.70
2023-01-29T10:36:45.242Z,62.70
2023-01-29T10:39:18.713Z,62.70
2023-01-29T10:41:57.304Z,62.80
2023-01-29T10:44:39.534Z,62.90
2023-01-29T10:47:34.339Z,62.30
2023-01-29T10:50:33.305Z,63.30
2023-01-29T10:53:31.042Z,63.30
2023-01-29T10:56:22.659Z,63.30
2023-01-29T10:59:06.963Z,63.30
2023-01-29T11:01:33.652Z,62.60
2023-01-29T11:04:04.090Z,62.70
2023-01-29T11:06:33.283Z,63.10
2023-01-29T11:09:09.735Z,63.70
2023-01-29T11:12:00.824Z,65.20
2023-01-29T11:14:33.539Z,65.30
2023-01-29T11:17:00.318Z,65.40
2023-01-29T11:19:48.149Z,66.00
2023-01-29T11:22:15.965Z,66.40
2023-01-29T11:24:43.085Z,64.80
2023-01-29T11:27:29.526Z,65.00
2023-01-29T11:29:56.450Z,66.10
2023-01-29T11:32:28.604Z,67.80
2023-01-29T11:35:11.955Z,67.10
2023-01-29T11:37:41.363Z,66.40
2023-01-29T11:40:20.567Z,65.90
2023-01-29T11:42:47.972Z,66.40
2023-01-29T11:45:27.671Z,66.50
2023-01-29T11:47:56.458Z,66.60
2023-01-29T11:50:29.294Z,66.90
2023-01-29T11:52:56.269Z,65.80
2023-01-29T11:55:25.622Z,65.10
2023-01-29T11:58:06.522Z,64.40
2023-01-29T12:00:35.715Z,63.90
2023-01-29T12:03:15.257Z,63.30
2023-01-29T12:05:55.000Z,63.50
2023-01-29T12:08:24.174Z,63.90
2023-01-29T12:10:50.999Z,63.90
2023-01-29T12:13:26.626Z,63.40
2023-01-29T12:16:21.499Z,64.70
2023-01-29T12:19:23.252Z,64.30
2023-01-29T12:21:59.791Z,64.20
2023-01-29T12:24:52.848Z,64.60
2023-01-29T12:27:54.622Z,63.80
2023-01-29T12:30:50.416Z,62.10
2023-01-29T12:33:37.006Z,61.10
2023-01-29T12:36:26.344Z,60.10
2023-01-29T12:38:54.570Z,60.60
2023-01-29T12:41:47.816Z,60.10
2023-01-29T12:44:22.999Z,60.20
2023-01-29T12:46:56.204Z,60.30
2023-01-29T12:49:28.021Z,59.70
2023-01-29T12:52:15.074Z,59.20
2023-01-29T12:54:50.278Z,59.30
2023-01-29T12:57:25.653Z,59.50
2023-01-29T13:00:15.019Z,58.20
2023-01-29T13:02:54.292Z,59.30
2023-01-29T13:05:27.155Z,59.90
2023-01-29T13:08:02.937Z,60.00
2023-01-29T13:10:34.964Z,61.10
2023-01-29T13:13:27.550Z,61.00
2023-01-29T13:15:56.535Z,60.90
2023-01-29T13:18:40.110Z,60.30
2023-01-29T13:21:11.984Z,60.90
2023-01-29T13:23:43.735Z,60.50
2023-01-29T13:26:13.834Z,60.40
2023-01-29T13:28:44.506Z,59.90
2023-01-29T13:31:33.422Z,58.50
2023-01-29T13:34:09.022Z,59.00
2023-01-29T13:36:41.296Z,59.90
2023-01-29T13:39:15.743Z,61.10
2023-01-29T13:41:43.539Z,60.40
2023-01-29T13:44:38.854Z,59.90
2023-01-29T13:47:11.478Z,60.30
2023-01-29T13:49:46.448Z,61.10
2023-01-29T13:52:34.095Z,60.80
2023-01-29T13:55:31.133Z,61.50
2023-01-29T13:58:02.514Z,60.90
2023-01-29T14:00:35.207Z,62.30
2023-01-29T14:03:01.848Z,62.90
2023-01-29T14:05:31.745Z,62.20
2023-01-29T14:08:03.480Z,63.30
2023-01-29T14:10:32.988Z,62.90
2023-01-29T14:13:18.012Z,62.10
2023-01-29T14:16:04.693Z,60.80
2023-01-29T14:18:33.585Z,58.30
2023-01-29T14:21:20.687Z,59.00
2023-01-29T14:23:50.693Z,59.30
2023-01-29T14:26:31.200Z,58.20
2023-01-29T14:28:57.961Z,56.30
2023-01-29T14:31:48.064Z,54.60
2023-01-29T14:34:25.481Z,53.20
2023-01-29T14:36:59.025Z,54.00
2023-01-29T14:39:34.246Z,54.90
2023-01-29T14:42:05.933Z,56.00
2023-01-29T14:44:44.750Z,57.20
2023-01-29T14:47:21.177Z,58.90
2023-01-29T14:49:56.264Z,58.50
2023-01-29T14:52:42.954Z,58.90
2023-01-29T14:55:23.304Z,59.60
2023-01-29T14:57:51.806Z,60.80
2023-01-29T15:00:29.422Z,62.10
2023-01-29T15:03:01.933Z,63.70
2023-01-29T15:05:37.432Z,65.50
2023-01-29T15:08:21.321Z,65.50
2023-01-29T15:11:14.223Z,64.80
2023-01-29T15:13:59.692Z,64.20
2023-01-29T15:16:35.140Z,64.90
2023-01-29T15:19:18.048Z,64.60
2023-01-29T15:22:03.339Z,65.10
2023-01-29T15:24:30.002Z,65.30
2023-01-29T15:26:56.983Z,66.20
2023-01-29T15:29:27.218Z,65.70
2023-01-29T15:31:55.874Z,66.40
2023-01-29T15:34:23.088Z,67.00
2023-01-29T15:36:50.784Z,66.70
2023-01-29T15:39:23.552Z,67.60
2023-01-29T15:42:03.808Z,67.80
2023-01-29T15:44:30.617Z,67.80
2023-01-29T15:46:59.934Z,67.90
2023-01-29T15:49:37.698Z,67.80
2023-01-29T15:52:08.278Z,68.40
2023-01-29T15:54:35.753Z,68.90
2023-01-29T15:57:03.590Z,69.30
2023-01-29T15:59:35.129Z,68.70
2023-01-29T16:02:35.899Z,69.30
2023-01-29T16:05:04.795Z,69.30
2023-01-29T16:07:31.892Z,69.10
2023-01-29T16:09:59.576Z,68.90
2023-01-29T16:12:26.762Z,69.00
2023-01-29T16:14:53.728Z,69.10
2023-01-29T16:17:35.006Z,69.30
2023-01-29T16:20:05.320Z,70.20
2023-01-29T16:22:37.493Z,70.30
2023-01-29T16:25:12.124Z,70.60
2023-01-29T16:27:38.890Z,70.40
2023-01-29T16:30:07.451Z,70.10
2023-01-29T16:32:34.136Z,70.70
2023-01-29T16:35:01.146Z,70.60
2023-01-29T16:37:36.254Z,70.80
2023-01-29T16:40:24.773Z,70.90
2023-01-29T16:43:16.650Z,71.10
2023-01-29T16:45:58.647Z,71.60
2023-01-29T16:48:27.866Z,72.10
2023-01-29T16:51:13.718Z,72.00
2023-01-29T16:53:40.679Z,72.00
2023-01-29T16:56:08.589Z,73.40
2023-01-29T16:58:35.665Z,72.40
2023-01-29T17:01:07.625Z,72.20
2023-01-29T17:03:35.775Z,72.00
2023-01-29T17:06:12.866Z,71.80
2023-01-29T17:08:42.651Z,71.90
2023-01-29T17:11:10.983Z,72.10
2023-01-29T17:13:42.551Z,73.40
2023-01-29T17:16:35.236Z,73.20
2023-01-29T17:19:01.968Z,72.70
2023-01-29T17:21:30.240Z,72.30
2023-01-29T17:23:56.921Z,71.70
2023-01-29T17:26:24.744Z,73.90
2023-01-29T17:28:53.628Z,73.80
2023-01-29T17:31:20.394Z,74.20
2023-01-29T17:33:47.766Z,74.90
2023-01-29T17:36:16.782Z,76.10
2023-01-29T17:38:43.703Z,75.80
2023-01-29T17:41:21.183Z,75.60
2023-01-29T17:43:47.976Z,75.90
2023-01-29T17:46:16.748Z,75.90
2023-01-29T17:48:44.250Z,75.30
2023-01-29T17:51:16.155Z,75.20
2023-01-29T17:53:46.237Z,74.70
2023-01-29T17:56:30.526Z,74.20
2023-01-29T17:58:57.258Z,73.80
2023-01-29T18:01:28.649Z,73.40
2023-01-29T18:03:55.406Z,73.10
2023-01-29T18:06:29.279Z,73.00
2023-01-29T18:08:58.684Z,72.90
2023-01-29T18:11:25.621Z,72.90
2023-01-29T18:13:52.363Z,72.50
2023-01-29T18:16:21.756Z,72.60
2023-01-29T18:18:49.701Z,71.40
2023-01-29T18:21:16.374Z,72.40
2023-01-29T18:23:43.140Z,73.00
2023-01-29T18:26:16.180Z,73.40
2023-01-29T18:28:43.671Z,73.40
2023-01-29T18:31:12.934Z,73.30
2023-01-29T18:33:40.346Z,72.90
2023-01-29T18:36:07.786Z,73.90
2023-01-29T18:38:34.464Z,73.70
2023-01-29T18:41:10.607Z,73.70
2023-01-29T18:43:38.719Z,73.50
2023-01-29T18:46:06.406Z,74.30
2023-01-29T18:48:33.794Z,73.30
2023-01-29T18:51:00.663Z,73.30
2023-01-29T18:53:27.455Z,73.80
2023-01-29T18:56:05.394Z,75.10
2023-01-29T18:58:36.310Z,75.00
2023-01-29T19:01:10.107Z,75.50
2023-01-29T19:03:37.421Z,77.10
2023-01-29T19:06:06.257Z,77.40
2023-01-29T19:08:33.379Z,77.40
2023-01-29T19:11:02.394Z,77.40
2023-01-29T19:13:30.671Z,76.50
2023-01-29T19:15:57.815Z,76.80
2023-01-29T19:18:27.822Z,76.70
2023-01-29T19:20:54.927Z,75.20
2023-01-29T19:23:22.033Z,74.40
2023-01-29T19:25:48.719Z,73.70
2023-01-29T19:28:15.547Z,73.50
2023-01-29T19:30:42.311Z,73.60
2023-01-29T19:33:10.467Z,73.00
2023-01-29T19:35:37.151Z,72.70
2023-01-29T19:38:04.452Z,72.40
2023-01-29T19:40:31.123Z,72.50
2023-01-29T19:42:58.390Z,73.00
2023-01-29T19:45:49.018Z,72.80
2023-01-29T19:48:14.454Z,72.90
2023-01-29T19:50:41.594Z,73.20
2023-01-29T19:53:08.286Z,73.60
2023-01-29T19:55:34.959Z,72.60
2023-01-29T19:58:03.474Z,71.80
2023-01-29T20:00:30.281Z,72.90
2023-01-29T20:02:56.958Z,73.80
2023-01-29T20:05:24.050Z,72.70
2023-01-29T20:07:50.750Z,72.30
2023-01-29T20:10:18.164Z,72.10
2023-01-29T20:12:46.015Z,72.50
2023-01-29T20:15:14.223Z,71.60
2023-01-29T20:17:41.247Z,72.50
2023-01-29T20:20:08.919Z,72.60
2023-01-29T20:22:35.788Z,71.60
2023-01-29T20:25:02.518Z,71.40
2023-01-29T20:27:29.168Z,72.10
2023-01-29T20:29:55.869Z,72.10
2023-01-29T20:32:22.681Z,71.90
2023-01-29T20:34:51.981Z,71.90
2023-01-29T20:37:19.504Z,71.90
2023-01-29T20:39:46.654Z,71.50
2023-01-29T20:42:13.719Z,72.30
2023-01-29T20:44:40.475Z,72.50
2023-01-29T20:47:07.205Z,72.50
2023-01-29T20:49:34.002Z,72.00
2023-01-29T20:52:00.690Z,72.20
2023-01-29T20:54:29.318Z,74.40
2023-01-29T20:56:56.085Z,74.00
2023-01-29T20:59:23.231Z,74.20
2023-01-29T21:01:50.039Z,74.60
2023-01-29T21:04:16.814Z,74.40
2023-01-29T21:06:43.511Z,74.60
2023-01-29T21:09:10.183Z,75.00
2023-01-29T21:11:36.861Z,75.80
2023-01-29T21:14:03.611Z,75.80
2023-01-29T21:16:30.641Z,75.80
2023-01-29T21:18:58.161Z,77.30
2023-01-29T21:21:26.494Z,75.90
2023-01-29T21:23:53.747Z,75.60
2023-01-29T21:26:20.568Z,75.80
2023-01-29T21:28:47.340Z,76.20
2023-01-29T21:31:14.966Z,76.60
2023-01-29T21:33:41.934Z,77.70
2023-01-29T21:36:10.124Z,78.00
2023-01-29T21:38:37.401Z,76.80
2023-01-29T21:41:09.634Z,76.70
2023-01-29T21:43:39.029Z,76.80
2023-01-29T21:46:13.739Z,78.50
2023-01-29T21:48:40.867Z,78.40
2023-01-29T21:51:07.961Z,79.30
2023-01-29T21:53:36.648Z,79.00
2023-01-29T21:56:04.754Z,79.70
2023-01-29T21:58:32.109Z,79.70
2023-01-29T22:01:35.625Z,80.40
2023-01-29T22:03:47.196Z,80.60
2023-01-29T22:06:14.327Z,80.90
2023-01-29T22:08:41.204Z,81.10
2023-01-29T22:11:08.206Z,80.90
2023-01-29T22:13:35.269Z,79.40
2023-01-29T22:16:01.917Z,80.30
2023-01-29T22:18:28.710Z,81.40
2023-01-29T22:20:56.503Z,80.80
2023-01-29T22:23:23.770Z,80.80
2023-01-29T22:25:50.446Z,81.20
2023-01-29T22:28:18.684Z,80.90
2023-01-29T22:30:45.864Z,80.80
2023-01-29T22:33:12.672Z,80.80
2023-01-29T22:35:39.459Z,81.00
2023-01-29T22:38:06.511Z,81.10
2023-01-29T22:40:33.214Z,81.20
2023-01-29T22:42:59.871Z,81.70
2023-01-29T22:45:27.271Z,81.80
2023-01-29T22:47:53.960Z,81.60
2023-01-29T22:50:20.852Z,81.60
2023-01-29T22:52:53.697Z,81.20
2023-01-29T22:55:20.711Z,81.40
2023-01-29T22:57:49.550Z,79.80
2023-01-29T23:00:17.020Z,76.30
2023-01-29T23:02:45.907Z,76.40
2023-01-29T23:05:12.647Z,76.20
2023-01-29T23:07:39.349Z,75.40
2023-01-29T23:10:07.226Z,75.10
2023-01-29T23:12:34.100Z,75.00
2023-01-29T23:15:00.765Z,75.00
2023-01-29T23:17:27.447Z,74.60
2023-01-29T23:19:54.115Z,75.00
2023-01-29T23:22:20.830Z,74.80
2023-01-29T23:24:47.499Z,74.90
2023-01-29T23:27:16.870Z,76.00
2023-01-29T23:29:45.709Z,77.00
2023-01-29T23:32:17.730Z,76.60
2023-01-29T23:34:44.616Z,76.80
2023-01-29T23:37:11.557Z,76.60
2023-01-29T23:39:38.308Z,76.60
2023-01-29T23:42:05.211Z,76.30
2023-01-29T23:44:31.885Z,75.90
2023-01-29T23:46:58.607Z,76.10
2023-01-29T23:49:25.399Z,76.60
2023-01-29T23:51:52.112Z,76.10
2023-01-29T23:54:18.866Z,75.60
2023-01-29T23:56:45.989Z,76.20
2023-01-29T23:59:13.003Z,76.90
